Stations météo

réclame
Mon MeteoGroup
Great Dun Fell, Grande-Bretagne (3227): Température de l'air & dewpoint: 22.05.2018 11:00:00 - 28.05.2018 11:00:00 (BST)Great Dun Fell, Grande-Bretagne (3227): Vitesse du vent & gusts: 22.05.2018 11:00:00 - 28.05.2018 11:00:00 (BST)Great Dun Fell, Grande-Bretagne (3227): Direction du vent: 22.05.2018 11:00:00 - 28.05.2018 11:00:00 (BST)
Date & Time tt [°C] td [°C] ff [km/h] ff [knt] fx [km/h] fx [knt] dd
28.05.2018 11:00:00 - - - - - - -
28.05.2018 10:00:00 11,5 9,7 34 18 - - E
28.05.2018 09:00:00 10,3 9,8 28 15 - - E
28.05.2018 08:00:00 10,1 10,1 29 16 - - E
28.05.2018 07:00:00 9,3 9,3 26 14 - - E
28.05.2018 06:00:00 9,3 9,3 28 15 - - E
28.05.2018 05:00:00 9,1 9,1 31 17 - - E
28.05.2018 04:00:00 8,7 8,7 39 21 46 25 E
28.05.2018 03:00:00 7,6 7,6 34 18 - - E
28.05.2018 02:00:00 9,3 9,3 37 20 - - E
28.05.2018 01:00:00 9,4 9,4 37 20 - - E
28.05.2018 00:00:00 9,7 9,0 35 19 46 25 E
27.05.2018 23:00:00 9,5 9,0 41 22 48 26 E
27.05.2018 22:00:00 9,6 9,1 42 23 57 31 E
27.05.2018 21:00:00 10,9 8,2 50 27 67 36 E
27.05.2018 20:00:00 12,7 7,8 54 29 70 38 E
27.05.2018 19:00:00 13,6 7,6 59 32 72 39 E
27.05.2018 18:00:00 13,9 8,1 59 32 76 41 E
27.05.2018 17:00:00 14,9 8,9 63 34 87 47 E
27.05.2018 16:00:00 15,3 8,5 78 42 91 49 E
27.05.2018 15:00:00 15,5 8,5 74 40 94 51 E
27.05.2018 14:00:00 15,7 7,9 74 40 - - E
27.05.2018 13:00:00 14,8 8,1 78 42 93 50 E
27.05.2018 12:00:00 14,6 8,6 76 41 - - E
27.05.2018 11:00:00 13,6 8,5 68 37 83 45 E
27.05.2018 10:00:00 13,0 8,3 65 35 83 45 E
27.05.2018 09:00:00 11,8 8,6 57 31 68 37 E
27.05.2018 08:00:00 9,1 8,5 42 23 50 27 E
27.05.2018 07:00:00 8,6 8,6 42 23 50 27 E
27.05.2018 06:00:00 7,4 7,4 42 23 54 29 ENE
27.05.2018 05:00:00 6,6 6,6 48 26 59 32 E
27.05.2018 04:00:00 7,2 7,2 52 28 61 33 E
27.05.2018 03:00:00 6,0 6,0 46 25 65 35 E
27.05.2018 02:00:00 5,9 5,9 57 31 76 41 ENE
27.05.2018 01:00:00 5,9 5,9 65 35 72 39 ENE
27.05.2018 00:00:00 6,2 6,2 59 32 70 38 ENE
26.05.2018 23:00:00 7,0 7,0 67 36 74 40 ENE
26.05.2018 22:00:00 7,1 6,7 59 32 89 48 ENE
26.05.2018 21:00:00 7,6 6,4 61 33 74 40 ENE
26.05.2018 20:00:00 9,4 5,8 68 37 81 44 ENE
26.05.2018 19:00:00 11,0 6,0 72 39 94 51 ENE
26.05.2018 18:00:00 12,4 4,4 83 45 98 53 ENE
26.05.2018 17:00:00 12,9 5,6 83 45 100 54 ENE
26.05.2018 16:00:00 13,0 4,6 78 42 89 48 E
26.05.2018 15:00:00 12,7 4,4 78 42 91 49 E
26.05.2018 14:00:00 11,4 5,7 74 40 87 47 E
26.05.2018 13:00:00 11,5 5,2 70 38 89 48 E
26.05.2018 12:00:00 11,5 6,3 76 41 - - ENE
26.05.2018 11:00:00 11,0 7,4 78 42 - - ENE
26.05.2018 10:00:00 10,3 7,9 67 36 83 45 ENE
26.05.2018 09:00:00 9,1 8,5 68 37 80 43 ENE
26.05.2018 08:00:00 7,7 7,7 70 38 87 47 ENE
26.05.2018 07:00:00 7,2 7,2 70 38 85 46 ENE
26.05.2018 06:00:00 7,5 7,5 70 38 85 46 ENE
26.05.2018 05:00:00 8,0 8,0 67 36 83 45 ENE
26.05.2018 04:00:00 8,4 8,4 67 36 81 44 ENE
26.05.2018 03:00:00 8,1 8,1 72 39 96 52 ENE
26.05.2018 02:00:00 8,0 8,0 67 36 83 45 ENE
26.05.2018 01:00:00 7,0 7,0 61 33 72 39 E
26.05.2018 00:00:00 7,2 7,2 63 34 74 40 ENE
25.05.2018 23:00:00 7,4 7,4 61 33 81 44 ENE
25.05.2018 22:00:00 8,0 8,0 72 39 85 46 ENE
25.05.2018 21:00:00 8,6 8,6 72 39 85 46 ENE
25.05.2018 20:00:00 8,4 8,4 68 37 80 43 ENE
25.05.2018 19:00:00 8,9 8,9 59 32 74 40 ENE
25.05.2018 18:00:00 8,3 8,3 59 32 70 38 ENE
25.05.2018 17:00:00 8,2 8,2 68 37 81 44 ENE
25.05.2018 16:00:00 8,2 8,2 76 41 85 46 ENE
25.05.2018 15:00:00 9,7 7,2 70 38 87 47 ENE
25.05.2018 14:00:00 11,3 5,8 70 38 91 49 ENE
25.05.2018 13:00:00 10,3 5,8 78 42 91 49 ENE
25.05.2018 12:00:00 10,1 5,9 65 35 81 44 ENE
25.05.2018 11:00:00 10,6 5,4 65 35 78 42 ENE
25.05.2018 10:00:00 9,6 5,5 63 34 85 46 ENE
25.05.2018 09:00:00 10,4 4,6 76 41 89 48 ENE
25.05.2018 08:00:00 10,0 3,9 48 26 63 34 ENE
25.05.2018 07:00:00 9,5 4,7 52 28 61 33 ENE
25.05.2018 06:00:00 7,8 5,4 31 17 46 25 ENE
25.05.2018 05:00:00 8,2 5,9 39 21 - - ENE
25.05.2018 04:00:00 8,7 5,1 37 20 48 26 ENE
25.05.2018 03:00:00 8,7 4,2 44 24 52 28 ENE
25.05.2018 02:00:00 8,2 4,0 31 17 - - ENE
25.05.2018 01:00:00 9,7 4,6 34 18 54 29 ENE
25.05.2018 00:00:00 9,4 4,7 44 24 54 29 ENE
24.05.2018 23:00:00 9,3 4,7 41 22 50 27 ENE
24.05.2018 22:00:00 9,4 5,3 41 22 50 27 ENE
24.05.2018 21:00:00 9,6 4,3 42 23 46 25 ENE
24.05.2018 20:00:00 10,8 3,2 39 21 46 25 ENE
24.05.2018 19:00:00 11,7 4,1 34 18 - - ENE
24.05.2018 18:00:00 13,1 3,1 31 17 - - E
24.05.2018 17:00:00 13,0 4,4 34 18 - - E
24.05.2018 16:00:00 13,2 5,9 37 20 48 26 E
24.05.2018 15:00:00 12,6 5,7 37 20 50 27 E
24.05.2018 14:00:00 12,6 6,0 37 20 46 25 E
24.05.2018 13:00:00 12,0 5,7 35 19 48 26 E
24.05.2018 12:00:00 11,6 3,6 35 19 46 25 E
24.05.2018 11:00:00 10,7 2,6 35 19 46 25 E
24.05.2018 10:00:00 9,8 1,5 39 21 48 26 E
24.05.2018 09:00:00 8,9 1,2 37 20 - - E
24.05.2018 08:00:00 7,8 1,1 29 16 - - E
24.05.2018 07:00:00 8,3 2,3 34 18 - - E
24.05.2018 06:00:00 8,6 2,8 28 15 - - E
24.05.2018 05:00:00 8,7 3,7 34 18 - - ESE
24.05.2018 04:00:00 8,4 2,4 22 12 - - ESE
24.05.2018 03:00:00 8,8 2,2 24 13 - - ESE
24.05.2018 02:00:00 9,9 3,6 31 17 - - SE
24.05.2018 01:00:00 9,3 1,8 34 18 - - SE
24.05.2018 00:00:00 8,3 2,0 24 13 - - SE
23.05.2018 23:00:00 7,8 2,8 22 12 - - SE
23.05.2018 22:00:00 7,9 3,7 26 14 - - ESE
23.05.2018 21:00:00 6,0 3,0 15 8 - - E
23.05.2018 20:00:00 6,7 4,2 26 14 - - E
23.05.2018 19:00:00 8,1 3,5 22 12 - - E
23.05.2018 18:00:00 9,0 3,7 26 14 - - E
23.05.2018 17:00:00 9,3 2,5 24 13 - - E
23.05.2018 16:00:00 9,4 0,6 16 9 - - E
23.05.2018 15:00:00 8,8 2,5 21 11 - - E
23.05.2018 14:00:00 8,4 3,1 22 12 - - E
23.05.2018 13:00:00 7,1 3,4 21 11 - - E
23.05.2018 12:00:00 6,9 2,2 18 10 - - E
23.05.2018 11:00:00 5,7 1,2 18 10 - - E
23.05.2018 10:00:00 4,4 1,2 21 11 - - E
23.05.2018 09:00:00 3,5 0,1 18 10 - - E
23.05.2018 08:00:00 2,8 2,0 21 11 - - E
23.05.2018 07:00:00 2,6 2,3 21 11 - - ENE
23.05.2018 06:00:00 5,7 1,7 21 11 - - E
23.05.2018 05:00:00 7,0 5,8 22 12 - - E
23.05.2018 04:00:00 4,9 4,9 24 13 - - ENE
23.05.2018 03:00:00 2,3 2,3 24 13 - - NE
23.05.2018 02:00:00 2,6 2,6 26 14 - - NE
23.05.2018 01:00:00 2,6 2,6 22 12 - - NE
23.05.2018 00:00:00 3,0 3,0 24 13 - - ENE
22.05.2018 23:00:00 3,4 3,4 22 12 - - NE
22.05.2018 22:00:00 3,5 3,5 29 16 - - NE
22.05.2018 21:00:00 4,0 4,0 34 18 - - NE
22.05.2018 20:00:00 4,7 4,5 28 15 - - NE
22.05.2018 19:00:00 5,5 4,4 26 14 - - NE
22.05.2018 18:00:00 5,9 3,8 26 14 - - NE
22.05.2018 17:00:00 7,3 2,2 24 13 - - NE
22.05.2018 16:00:00 7,2 1,6 26 14 - - NE
22.05.2018 15:00:00 6,0 2,1 28 15 - - NE
22.05.2018 14:00:00 5,9 2,5 28 15 - - NE
22.05.2018 13:00:00 5,2 3,4 28 15 - - NE
22.05.2018 12:00:00 5,3 4,1 35 19 52 28 ENE
22.05.2018 11:00:00 4,6 3,8 42 23 52 28 ENE

tt = Température de l'air
td = dewpoint
ff = Vitesse du vent
fx = gusts
dd = Direction du vent

stations d'obs. à proximité